Main page
METAR-TAF:

METAR-TAF

Airports :

Hyderabad, India

Begumpet Airport

latitude: 17-27N, longitude: 078-28E, elevation: 530 m

Current weather observation

The report was made 43 minutes ago, at 06:00 UTC
Wind 5 kt from the Southwest
Temperature 31°C
Humidity 55%
Pressure 1013 hPa
Visibility: 5000 m
Few clouds at a height of 1500 ft
haze

METAR: VOHY 210600Z 23005KT 5000 HZ FEW015 BKN10 31/21 Q1013 NOSIG

Time: 12:13 (06:43 UTC)

Forecast

The report was made 19 hours and 43 minutes ago, at 11:00 UTC
Forecast valid from 20 at 12 UTC to 20 at 21 UTC
Wind 5 kt from the West
Visibility: 6000 m
Few clouds at a height of 1500 ft
Temporary
from 20 at 12 UTC to 20 at 20 UTC
Wind 4 kt from variable directions
Visibility: 4000 m
Few clouds at a height of 2500 ft
Scattered clouds at a height of 10000 ft
light drizzle, haze

TAF: VOHY 201100Z 2012/2021 27005KT 6000 FEW015 TEMPO 2012/2020 VRB04KT 4000 -DZ HZ FEW025 SCT100

Weather observations and forecasts of more than 4000 airports (METAR and TAF reports).

The available stations are represented by yellow and red dots on the map.

Hover mouse over dot to see the name of the station.

Then click to see weather observations and forecasts.

To change the map : click on the green buttons with a black cross to zoom in, on the green button with a dash to zoom out, or on the green arrows for adjacent maps.


METAR-TAF: